sensor_id;sensor_type;location;lat;lon;timestamp;temperature;humidity
2873;DHT22;1444;49.166;7.312;2023-09-19T00:00:19;17.80;99.90
2873;DHT22;1444;49.166;7.312;2023-09-19T00:02:52;17.80;99.90
2873;DHT22;1444;49.166;7.312;2023-09-19T00:05:19;17.90;99.90
2873;DHT22;1444;49.166;7.312;2023-09-19T00:07:50;17.80;99.90
2873;DHT22;1444;49.166;7.312;2023-09-19T00:10:17;17.90;99.90
2873;DHT22;1444;49.166;7.312;2023-09-19T00:12:44;17.90;99.90
2873;DHT22;1444;49.166;7.312;2023-09-19T00:15:13;17.80;99.90
2873;DHT22;1444;49.166;7.312;2023-09-19T00:17:43;17.90;99.90
2873;DHT22;1444;49.166;7.312;2023-09-19T00:20:11;18.00;99.90
2873;DHT22;1444;49.166;7.312;2023-09-19T00:22:39;18.00;99.90
2873;DHT22;1444;49.166;7.312;2023-09-19T00:25:07;17.90;99.90
2873;DHT22;1444;49.166;7.312;2023-09-19T00:27:35;18.00;99.90
2873;DHT22;1444;49.166;7.312;2023-09-19T00:30:07;18.00;99.90
2873;DHT22;1444;49.166;7.312;2023-09-19T00:32:41;18.10;99.90
2873;DHT22;1444;49.166;7.312;2023-09-19T00:35:08;18.10;99.90
2873;DHT22;1444;49.166;7.312;2023-09-19T00:37:36;18.00;99.90
2873;DHT22;1444;49.166;7.312;2023-09-19T00:40:03;18.10;99.90
2873;DHT22;1444;49.166;7.312;2023-09-19T00:42:31;18.10;99.90
2873;DHT22;1444;49.166;7.312;2023-09-19T00:44:59;18.20;99.90
2873;DHT22;1444;49.166;7.312;2023-09-19T00:47:29;18.30;99.90
2873;DHT22;1444;49.166;7.312;2023-09-19T00:49:57;18.20;99.90
2873;DHT22;1444;49.166;7.312;2023-09-19T00:52:25;18.20;99.90
2873;DHT22;1444;49.166;7.312;2023-09-19T00:54:52;18.20;99.90
2873;DHT22;1444;49.166;7.312;2023-09-19T00:57:18;18.20;99.90
2873;DHT22;1444;49.166;7.312;2023-09-19T00:59:48;18.30;99.90
2873;DHT22;1444;49.166;7.312;2023-09-19T01:02:17;18.30;99.90
2873;DHT22;1444;49.166;7.312;2023-09-19T01:04:44;18.40;99.90
2873;DHT22;1444;49.166;7.312;2023-09-19T01:07:13;18.50;99.90
2873;DHT22;1444;49.166;7.312;2023-09-19T01:09:40;18.40;99.90
2873;DHT22;1444;49.166;7.312;2023-09-19T01:12:08;18.30;99.90
2873;DHT22;1444;49.166;7.312;2023-09-19T01:14:42;18.40;99.90
2873;DHT22;1444;49.166;7.312;2023-09-19T01:17:19;18.30;99.90
2873;DHT22;1444;49.166;7.312;2023-09-19T01:20:21;18.30;99.90
2873;DHT22;1444;49.166;7.312;2023-09-19T01:23:00;18.20;99.90
2873;DHT22;1444;49.166;7.312;2023-09-19T01:28:34;18.00;99.90
2873;DHT22;1444;49.166;7.312;2023-09-19T01:31:09;17.90;99.90
2873;DHT22;1444;49.166;7.312;2023-09-19T01:33:59;17.90;99.90
2873;DHT22;1444;49.166;7.312;2023-09-19T01:36:28;17.90;99.90
2873;DHT22;1444;49.166;7.312;2023-09-19T01:38:56;17.90;99.90
2873;DHT22;1444;49.166;7.312;2023-09-19T01:41:29;17.90;99.90
2873;DHT22;1444;49.166;7.312;2023-09-19T01:44:03;18.00;99.90
2873;DHT22;1444;49.166;7.312;2023-09-19T01:46:37;18.00;99.90
2873;DHT22;1444;49.166;7.312;2023-09-19T01:49:15;18.10;99.90
2873;DHT22;1444;49.166;7.312;2023-09-19T01:51:51;18.10;99.90
2873;DHT22;1444;49.166;7.312;2023-09-19T01:54:26;18.10;99.90
2873;DHT22;1444;49.166;7.312;2023-09-19T01:57:01;18.00;99.90
2873;DHT22;1444;49.166;7.312;2023-09-19T01:59:35;18.00;99.90
2873;DHT22;1444;49.166;7.312;2023-09-19T02:02:07;18.00;99.90
2873;DHT22;1444;49.166;7.312;2023-09-19T02:04:35;18.00;99.90
2873;DHT22;1444;49.166;7.312;2023-09-19T02:07:02;17.90;99.90
2873;DHT22;1444;49.166;7.312;2023-09-19T02:09:31;17.90;99.90
2873;DHT22;1444;49.166;7.312;2023-09-19T02:11:59;17.90;99.90
2873;DHT22;1444;49.166;7.312;2023-09-19T02:14:26;17.90;99.90
2873;DHT22;1444;49.166;7.312;2023-09-19T02:16:55;17.90;99.90
2873;DHT22;1444;49.166;7.312;2023-09-19T02:19:23;17.90;99.90
2873;DHT22;1444;49.166;7.312;2023-09-19T02:21:50;17.90;99.90
2873;DHT22;1444;49.166;7.312;2023-09-19T02:24:16;17.90;99.90
2873;DHT22;1444;49.166;7.312;2023-09-19T02:26:44;17.80;99.90
2873;DHT22;1444;49.166;7.312;2023-09-19T02:29:11;17.80;99.90
2873;DHT22;1444;49.166;7.312;2023-09-19T02:31:39;17.90;99.90
2873;DHT22;1444;49.166;7.312;2023-09-19T02:34:06;17.90;99.90
2873;DHT22;1444;49.166;7.312;2023-09-19T02:36:37;17.90;99.90
2873;DHT22;1444;49.166;7.312;2023-09-19T02:39:04;17.90;99.90
2873;DHT22;1444;49.166;7.312;2023-09-19T02:41:34;17.90;99.90
2873;DHT22;1444;49.166;7.312;2023-09-19T02:44:00;17.90;99.90
2873;DHT22;1444;49.166;7.312;2023-09-19T02:46:28;17.90;99.90
2873;DHT22;1444;49.166;7.312;2023-09-19T02:48:54;17.80;99.90
2873;DHT22;1444;49.166;7.312;2023-09-19T02:51:21;17.80;99.90
2873;DHT22;1444;49.166;7.312;2023-09-19T02:53:50;17.80;99.90
2873;DHT22;1444;49.166;7.312;2023-09-19T02:56:19;17.70;99.90
2873;DHT22;1444;49.166;7.312;2023-09-19T02:58:46;17.60;99.90
2873;DHT22;1444;49.166;7.312;2023-09-19T03:01:13;17.50;99.90
2873;DHT22;1444;49.166;7.312;2023-09-19T03:03:40;17.50;99.90
2873;DHT22;1444;49.166;7.312;2023-09-19T03:06:07;17.50;99.90
2873;DHT22;1444;49.166;7.312;2023-09-19T03:08:35;17.60;99.90
2873;DHT22;1444;49.166;7.312;2023-09-19T03:11:04;17.60;99.90
2873;DHT22;1444;49.166;7.312;2023-09-19T03:13:33;17.50;99.90
2873;DHT22;1444;49.166;7.312;2023-09-19T03:16:02;17.50;99.90
2873;DHT22;1444;49.166;7.312;2023-09-19T03:18:31;17.40;99.90
2873;DHT22;1444;49.166;7.312;2023-09-19T03:20:58;17.20;99.90
2873;DHT22;1444;49.166;7.312;2023-09-19T03:23:27;17.30;99.90
2873;DHT22;1444;49.166;7.312;2023-09-19T03:25:54;17.20;99.90
2873;DHT22;1444;49.166;7.312;2023-09-19T03:28:23;17.30;99.90
2873;DHT22;1444;49.166;7.312;2023-09-19T03:30:58;17.20;99.90
2873;DHT22;1444;49.166;7.312;2023-09-19T03:33:26;17.30;99.90
2873;DHT22;1444;49.166;7.312;2023-09-19T03:35:52;17.20;99.90
2873;DHT22;1444;49.166;7.312;2023-09-19T03:38:20;17.20;99.90
2873;DHT22;1444;49.166;7.312;2023-09-19T03:40:47;17.10;99.90
2873;DHT22;1444;49.166;7.312;2023-09-19T03:43:14;17.00;99.90
2873;DHT22;1444;49.166;7.312;2023-09-19T03:45:42;17.00;99.90
2873;DHT22;1444;49.166;7.312;2023-09-19T03:48:09;16.90;99.90
2873;DHT22;1444;49.166;7.312;2023-09-19T03:50:36;16.90;99.90
2873;DHT22;1444;49.166;7.312;2023-09-19T03:53:03;16.90;99.90
2873;DHT22;1444;49.166;7.312;2023-09-19T03:55:29;17.00;99.90
2873;DHT22;1444;49.166;7.312;2023-09-19T03:57:56;17.00;99.90
2873;DHT22;1444;49.166;7.312;2023-09-19T04:00:23;16.90;99.90
2873;DHT22;1444;49.166;7.312;2023-09-19T04:02:53;16.90;99.90
2873;DHT22;1444;49.166;7.312;2023-09-19T04:05:21;16.90;99.90
2873;DHT22;1444;49.166;7.312;2023-09-19T04:07:48;17.00;99.90
2873;DHT22;1444;49.166;7.312;2023-09-19T04:10:16;16.90;99.90
2873;DHT22;1444;49.166;7.312;2023-09-19T04:12:50;16.90;99.90
2873;DHT22;1444;49.166;7.312;2023-09-19T04:15:17;16.90;99.90
2873;DHT22;1444;49.166;7.312;2023-09-19T04:17:44;16.90;99.90
2873;DHT22;1444;49.166;7.312;2023-09-19T04:20:12;16.90;99.90
2873;DHT22;1444;49.166;7.312;2023-09-19T04:22:39;16.90;99.90
2873;DHT22;1444;49.166;7.312;2023-09-19T04:25:07;16.90;99.90
2873;DHT22;1444;49.166;7.312;2023-09-19T04:27:34;16.90;99.90
2873;DHT22;1444;49.166;7.312;2023-09-19T04:30:02;16.90;99.90
2873;DHT22;1444;49.166;7.312;2023-09-19T04:32:35;16.90;99.90
2873;DHT22;1444;49.166;7.312;2023-09-19T04:35:04;16.80;99.90
2873;DHT22;1444;49.166;7.312;2023-09-19T04:37:36;16.90;99.90
2873;DHT22;1444;49.166;7.312;2023-09-19T04:40:05;17.00;99.90
2873;DHT22;1444;49.166;7.312;2023-09-19T04:42:35;17.00;99.90
2873;DHT22;1444;49.166;7.312;2023-09-19T04:45:03;16.80;99.90
2873;DHT22;1444;49.166;7.312;2023-09-19T04:47:30;16.80;99.90
2873;DHT22;1444;49.166;7.312;2023-09-19T04:49:57;16.80;99.90
2873;DHT22;1444;49.166;7.312;2023-09-19T04:52:24;16.80;99.90
2873;DHT22;1444;49.166;7.312;2023-09-19T04:54:53;16.80;99.90
2873;DHT22;1444;49.166;7.312;2023-09-19T04:57:19;16.80;99.90
2873;DHT22;1444;49.166;7.312;2023-09-19T04:59:46;16.70;99.90
2873;DHT22;1444;49.166;7.312;2023-09-19T05:02:13;16.80;99.90
2873;DHT22;1444;49.166;7.312;2023-09-19T05:04:40;16.70;99.90
2873;DHT22;1444;49.166;7.312;2023-09-19T05:07:06;16.70;99.90
2873;DHT22;1444;49.166;7.312;2023-09-19T05:09:33;16.70;99.90
2873;DHT22;1444;49.166;7.312;2023-09-19T05:12:04;16.70;99.90
2873;DHT22;1444;49.166;7.312;2023-09-19T05:14:32;16.80;99.90
2873;DHT22;1444;49.166;7.312;2023-09-19T05:16:58;16.70;99.90
2873;DHT22;1444;49.166;7.312;2023-09-19T05:19:25;16.80;99.90
2873;DHT22;1444;49.166;7.312;2023-09-19T05:21:52;16.70;99.90
2873;DHT22;1444;49.166;7.312;2023-09-19T05:24:20;16.60;99.90
2873;DHT22;1444;49.166;7.312;2023-09-19T05:26:48;16.50;99.90
2873;DHT22;1444;49.166;7.312;2023-09-19T05:29:16;16.60;99.90
2873;DHT22;1444;49.166;7.312;2023-09-19T05:31:43;16.50;99.90
2873;DHT22;1444;49.166;7.312;2023-09-19T05:34:10;16.50;99.90
2873;DHT22;1444;49.166;7.312;2023-09-19T05:36:37;16.60;99.90
2873;DHT22;1444;49.166;7.312;2023-09-19T05:39:05;16.70;99.90
2873;DHT22;1444;49.166;7.312;2023-09-19T05:41:34;16.60;99.90
2873;DHT22;1444;49.166;7.312;2023-09-19T05:44:02;16.70;99.90
2873;DHT22;1444;49.166;7.312;2023-09-19T05:46:30;16.60;99.90
2873;DHT22;1444;49.166;7.312;2023-09-19T05:48:57;16.70;99.90
2873;DHT22;1444;49.166;7.312;2023-09-19T05:51:24;16.70;99.90
2873;DHT22;1444;49.166;7.312;2023-09-19T05:53:54;16.60;99.90
2873;DHT22;1444;49.166;7.312;2023-09-19T05:56:21;16.60;99.90
2873;DHT22;1444;49.166;7.312;2023-09-19T05:58:48;16.60;99.90
2873;DHT22;1444;49.166;7.312;2023-09-19T06:01:17;16.60;99.90
2873;DHT22;1444;49.166;7.312;2023-09-19T06:03:45;16.60;99.90
2873;DHT22;1444;49.166;7.312;2023-09-19T06:06:13;16.50;99.90
2873;DHT22;1444;49.166;7.312;2023-09-19T06:08:39;16.50;99.90
2873;DHT22;1444;49.166;7.312;2023-09-19T06:11:09;16.60;99.90
2873;DHT22;1444;49.166;7.312;2023-09-19T06:13:36;16.60;99.90
2873;DHT22;1444;49.166;7.312;2023-09-19T06:16:04;16.80;99.90
2873;DHT22;1444;49.166;7.312;2023-09-19T06:18:31;16.70;99.90
2873;DHT22;1444;49.166;7.312;2023-09-19T06:21:00;16.80;99.90
2873;DHT22;1444;49.166;7.312;2023-09-19T06:23:31;16.90;99.90
2873;DHT22;1444;49.166;7.312;2023-09-19T06:25:57;16.90;99.90
2873;DHT22;1444;49.166;7.312;2023-09-19T06:28:24;16.90;99.90
2873;DHT22;1444;49.166;7.312;2023-09-19T06:30:53;16.90;99.90
2873;DHT22;1444;49.166;7.312;2023-09-19T06:33:20;16.90;99.90
2873;DHT22;1444;49.166;7.312;2023-09-19T06:35:47;16.90;99.90
2873;DHT22;1444;49.166;7.312;2023-09-19T06:38:16;17.00;99.90
2873;DHT22;1444;49.166;7.312;2023-09-19T06:40:44;17.00;99.90
2873;DHT22;1444;49.166;7.312;2023-09-19T06:43:11;17.00;99.90
2873;DHT22;1444;49.166;7.312;2023-09-19T06:45:39;16.90;99.90
2873;DHT22;1444;49.166;7.312;2023-09-19T06:48:06;16.90;99.90
2873;DHT22;1444;49.166;7.312;2023-09-19T06:50:34;16.90;99.90
2873;DHT22;1444;49.166;7.312;2023-09-19T06:53:01;16.90;99.90
2873;DHT22;1444;49.166;7.312;2023-09-19T06:55:29;17.00;99.90
2873;DHT22;1444;49.166;7.312;2023-09-19T06:57:57;17.00;99.90
2873;DHT22;1444;49.166;7.312;2023-09-19T07:00:24;16.90;99.90
2873;DHT22;1444;49.166;7.312;2023-09-19T07:02:57;16.90;99.90
2873;DHT22;1444;49.166;7.312;2023-09-19T07:05:26;16.90;99.90
2873;DHT22;1444;49.166;7.312;2023-09-19T07:07:54;16.90;99.90
2873;DHT22;1444;49.166;7.312;2023-09-19T07:10:21;17.00;99.90
2873;DHT22;1444;49.166;7.312;2023-09-19T07:12:55;17.00;99.90
2873;DHT22;1444;49.166;7.312;2023-09-19T07:15:22;17.00;99.90
2873;DHT22;1444;49.166;7.312;2023-09-19T07:17:50;17.00;99.90
2873;DHT22;1444;49.166;7.312;2023-09-19T07:20:17;17.20;99.90
2873;DHT22;1444;49.166;7.312;2023-09-19T07:22:44;17.40;99.90
2873;DHT22;1444;49.166;7.312;2023-09-19T07:25:11;17.40;99.90
2873;DHT22;1444;49.166;7.312;2023-09-19T07:27:39;17.40;99.90
2873;DHT22;1444;49.166;7.312;2023-09-19T07:30:08;17.50;99.90
2873;DHT22;1444;49.166;7.312;2023-09-19T07:32:37;17.50;99.90
2873;DHT22;1444;49.166;7.312;2023-09-19T07:35:04;17.70;99.90
2873;DHT22;1444;49.166;7.312;2023-09-19T07:37:32;17.90;99.90
2873;DHT22;1444;49.166;7.312;2023-09-19T07:39:59;17.70;99.90
2873;DHT22;1444;49.166;7.312;2023-09-19T07:42:26;17.80;99.90
2873;DHT22;1444;49.166;7.312;2023-09-19T07:44:53;17.80;99.90
2873;DHT22;1444;49.166;7.312;2023-09-19T07:47:21;18.20;99.90
2873;DHT22;1444;49.166;7.312;2023-09-19T07:49:48;18.40;99.90
2873;DHT22;1444;49.166;7.312;2023-09-19T07:52:15;18.60;99.90
2873;DHT22;1444;49.166;7.312;2023-09-19T07:54:43;18.60;99.90
2873;DHT22;1444;49.166;7.312;2023-09-19T07:57:10;18.50;99.90
2873;DHT22;1444;49.166;7.312;2023-09-19T07:59:37;18.30;99.90
2873;DHT22;1444;49.166;7.312;2023-09-19T08:02:04;18.20;99.90
2873;DHT22;1444;49.166;7.312;2023-09-19T08:04:35;18.20;99.90
2873;DHT22;1444;49.166;7.312;2023-09-19T08:07:02;18.50;99.90
2873;DHT22;1444;49.166;7.312;2023-09-19T08:09:30;18.50;99.80
2873;DHT22;1444;49.166;7.312;2023-09-19T08:11:58;18.60;99.90
2873;DHT22;1444;49.166;7.312;2023-09-19T08:14:29;18.70;99.90
2873;DHT22;1444;49.166;7.312;2023-09-19T08:16:56;18.70;99.90
2873;DHT22;1444;49.166;7.312;2023-09-19T08:19:24;18.90;99.60
2873;DHT22;1444;49.166;7.312;2023-09-19T08:21:55;19.00;99.40
2873;DHT22;1444;49.166;7.312;2023-09-19T08:24:24;19.10;98.60
2873;DHT22;1444;49.166;7.312;2023-09-19T08:26:54;19.10;98.70
2873;DHT22;1444;49.166;7.312;2023-09-19T08:29:21;18.90;99.00
2873;DHT22;1444;49.166;7.312;2023-09-19T08:31:53;18.80;99.70
2873;DHT22;1444;49.166;7.312;2023-09-19T08:34:20;18.80;98.90
2873;DHT22;1444;49.166;7.312;2023-09-19T08:36:47;18.60;98.50
2873;DHT22;1444;49.166;7.312;2023-09-19T08:39:15;18.60;99.10
2873;DHT22;1444;49.166;7.312;2023-09-19T08:41:42;18.30;99.10
2873;DHT22;1444;49.166;7.312;2023-09-19T08:44:09;18.40;99.30
2873;DHT22;1444;49.166;7.312;2023-09-19T08:46:41;18.40;99.00
2873;DHT22;1444;49.166;7.312;2023-09-19T08:49:12;18.60;98.60
2873;DHT22;1444;49.166;7.312;2023-09-19T08:51:45;18.80;99.10
2873;DHT22;1444;49.166;7.312;2023-09-19T08:54:19;18.90;98.40
2873;DHT22;1444;49.166;7.312;2023-09-19T08:56:49;19.00;98.80
2873;DHT22;1444;49.166;7.312;2023-09-19T08:59:17;19.20;98.80
2873;DHT22;1444;49.166;7.312;2023-09-19T09:01:50;19.40;98.20
2873;DHT22;1444;49.166;7.312;2023-09-19T09:04:19;19.70;98.50
2873;DHT22;1444;49.166;7.312;2023-09-19T09:06:46;19.80;98.70
2873;DHT22;1444;49.166;7.312;2023-09-19T09:09:14;19.80;98.50
2873;DHT22;1444;49.166;7.312;2023-09-19T09:11:42;19.50;97.50
2873;DHT22;1444;49.166;7.312;2023-09-19T09:14:09;19.50;97.50
2873;DHT22;1444;49.166;7.312;2023-09-19T09:16:36;19.60;98.10
2873;DHT22;1444;49.166;7.312;2023-09-19T09:19:04;19.60;97.40
2873;DHT22;1444;49.166;7.312;2023-09-19T09:21:32;19.60;97.40
2873;DHT22;1444;49.166;7.312;2023-09-19T09:24:26;19.50;96.90
2873;DHT22;1444;49.166;7.312;2023-09-19T09:26:54;19.60;97.30
2873;DHT22;1444;49.166;7.312;2023-09-19T09:29:45;19.50;97.10
2873;DHT22;1444;49.166;7.312;2023-09-19T09:32:19;19.30;97.10
2873;DHT22;1444;49.166;7.312;2023-09-19T09:34:48;19.40;97.50
2873;DHT22;1444;49.166;7.312;2023-09-19T09:37:16;19.50;97.50
2873;DHT22;1444;49.166;7.312;2023-09-19T09:39:54;19.50;97.40
2873;DHT22;1444;49.166;7.312;2023-09-19T09:42:33;19.40;97.30
2873;DHT22;1444;49.166;7.312;2023-09-19T09:45:17;19.40;97.00
2873;DHT22;1444;49.166;7.312;2023-09-19T09:47:54;19.40;97.30
2873;DHT22;1444;49.166;7.312;2023-09-19T09:50:25;19.30;97.70
2873;DHT22;1444;49.166;7.312;2023-09-19T09:52:55;19.20;97.40
2873;DHT22;1444;49.166;7.312;2023-09-19T09:55:28;19.20;97.80
2873;DHT22;1444;49.166;7.312;2023-09-19T09:58:16;19.30;97.80
2873;DHT22;1444;49.166;7.312;2023-09-19T10:00:52;19.30;98.00
2873;DHT22;1444;49.166;7.312;2023-09-19T10:03:31;19.40;97.60
2873;DHT22;1444;49.166;7.312;2023-09-19T10:05:58;19.20;96.50
2873;DHT22;1444;49.166;7.312;2023-09-19T10:08:25;19.30;96.60
2873;DHT22;1444;49.166;7.312;2023-09-19T10:10:57;19.30;96.50
2873;DHT22;1444;49.166;7.312;2023-09-19T10:13:34;19.30;96.60
2873;DHT22;1444;49.166;7.312;2023-09-19T10:16:06;19.20;96.50
2873;DHT22;1444;49.166;7.312;2023-09-19T10:18:37;19.40;96.80
2873;DHT22;1444;49.166;7.312;2023-09-19T10:21:04;19.60;97.20
2873;DHT22;1444;49.166;7.312;2023-09-19T10:24:04;19.70;96.70
2873;DHT22;1444;49.166;7.312;2023-09-19T10:26:34;19.70;96.20
2873;DHT22;1444;49.166;7.312;2023-09-19T10:29:06;19.70;96.50
2873;DHT22;1444;49.166;7.312;2023-09-19T10:31:36;19.80;96.10
2873;DHT22;1444;49.166;7.312;2023-09-19T10:34:07;19.80;97.00
2873;DHT22;1444;49.166;7.312;2023-09-19T10:36:36;20.00;96.60
2873;DHT22;1444;49.166;7.312;2023-09-19T10:39:05;20.00;96.00
2873;DHT22;1444;49.166;7.312;2023-09-19T10:41:34;20.40;96.30
2873;DHT22;1444;49.166;7.312;2023-09-19T10:44:04;20.60;95.90
2873;DHT22;1444;49.166;7.312;2023-09-19T10:46:32;20.90;96.90
2873;DHT22;1444;49.166;7.312;2023-09-19T10:48:59;21.20;96.10
2873;DHT22;1444;49.166;7.312;2023-09-19T10:51:30;21.10;93.50
2873;DHT22;1444;49.166;7.312;2023-09-19T10:54:02;20.90;95.00
2873;DHT22;1444;49.166;7.312;2023-09-19T10:56:33;20.90;94.30
2873;DHT22;1444;49.166;7.312;2023-09-19T10:59:07;20.90;95.20
2873;DHT22;1444;49.166;7.312;2023-09-19T11:01:45;21.30;95.30
2873;DHT22;1444;49.166;7.312;2023-09-19T11:04:29;21.50;95.40
2873;DHT22;1444;49.166;7.312;2023-09-19T11:07:06;21.30;94.20
2873;DHT22;1444;49.166;7.312;2023-09-19T11:09:43;20.80;94.00
2873;DHT22;1444;49.166;7.312;2023-09-19T11:12:11;20.60;94.30
2873;DHT22;1444;49.166;7.312;2023-09-19T11:14:41;20.50;94.20
2873;DHT22;1444;49.166;7.312;2023-09-19T11:17:41;20.50;94.00
2873;DHT22;1444;49.166;7.312;2023-09-19T11:20:21;20.70;93.60
2873;DHT22;1444;49.166;7.312;2023-09-19T11:23:19;20.40;93.60
2873;DHT22;1444;49.166;7.312;2023-09-19T11:25:49;20.80;94.80
2873;DHT22;1444;49.166;7.312;2023-09-19T11:28:30;21.10;94.30
2873;DHT22;1444;49.166;7.312;2023-09-19T11:34:44;21.40;93.80
2873;DHT22;1444;49.166;7.312;2023-09-19T11:40:37;21.60;94.10
2873;DHT22;1444;49.166;7.312;2023-09-19T11:43:30;21.80;93.30
2873;DHT22;1444;49.166;7.312;2023-09-19T11:46:07;21.90;92.60
2873;DHT22;1444;49.166;7.312;2023-09-19T11:48:43;22.10;93.50
2873;DHT22;1444;49.166;7.312;2023-09-19T11:51:16;22.20;92.90
2873;DHT22;1444;49.166;7.312;2023-09-19T11:53:49;22.20;92.90
2873;DHT22;1444;49.166;7.312;2023-09-19T11:56:17;22.00;92.60
2873;DHT22;1444;49.166;7.312;2023-09-19T11:58:44;21.70;92.60
2873;DHT22;1444;49.166;7.312;2023-09-19T12:01:14;21.40;92.20
2873;DHT22;1444;49.166;7.312;2023-09-19T12:03:47;21.40;94.20
2873;DHT22;1444;49.166;7.312;2023-09-19T12:06:15;21.70;93.60
2873;DHT22;1444;49.166;7.312;2023-09-19T12:08:44;21.80;93.60
2873;DHT22;1444;49.166;7.312;2023-09-19T12:11:13;21.70;92.20
2873;DHT22;1444;49.166;7.312;2023-09-19T12:13:45;21.70;92.10
2873;DHT22;1444;49.166;7.312;2023-09-19T12:16:17;21.60;92.60
2873;DHT22;1444;49.166;7.312;2023-09-19T12:18:48;21.50;92.90
2873;DHT22;1444;49.166;7.312;2023-09-19T12:21:23;21.50;92.50
2873;DHT22;1444;49.166;7.312;2023-09-19T12:23:58;21.50;92.40
2873;DHT22;1444;49.166;7.312;2023-09-19T12:26:26;21.60;92.30
2873;DHT22;1444;49.166;7.312;2023-09-19T12:28:54;21.50;92.10
2873;DHT22;1444;49.166;7.312;2023-09-19T12:31:22;21.50;92.70
2873;DHT22;1444;49.166;7.312;2023-09-19T12:33:55;21.60;92.40
2873;DHT22;1444;49.166;7.312;2023-09-19T12:36:22;21.50;92.80
2873;DHT22;1444;49.166;7.312;2023-09-19T12:38:55;21.60;92.20
2873;DHT22;1444;49.166;7.312;2023-09-19T12:41:24;21.50;91.80
2873;DHT22;1444;49.166;7.312;2023-09-19T12:43:51;21.70;91.90
2873;DHT22;1444;49.166;7.312;2023-09-19T12:46:20;21.90;92.60
2873;DHT22;1444;49.166;7.312;2023-09-19T12:49:17;22.10;91.50
2873;DHT22;1444;49.166;7.312;2023-09-19T12:51:44;22.10;92.20
2873;DHT22;1444;49.166;7.312;2023-09-19T12:54:11;21.90;91.90
2873;DHT22;1444;49.166;7.312;2023-09-19T12:56:41;21.70;92.10
2873;DHT22;1444;49.166;7.312;2023-09-19T12:59:11;21.80;92.30
2873;DHT22;1444;49.166;7.312;2023-09-19T13:01:39;22.00;92.20
2873;DHT22;1444;49.166;7.312;2023-09-19T13:04:13;22.10;92.50
2873;DHT22;1444;49.166;7.312;2023-09-19T13:06:45;22.00;92.90
2873;DHT22;1444;49.166;7.312;2023-09-19T13:09:14;21.90;92.10
2873;DHT22;1444;49.166;7.312;2023-09-19T13:11:42;21.90;92.70
2873;DHT22;1444;49.166;7.312;2023-09-19T13:14:15;22.20;92.00
2873;DHT22;1444;49.166;7.312;2023-09-19T13:16:56;22.40;91.50
2873;DHT22;1444;49.166;7.312;2023-09-19T13:19:43;22.20;92.20
2873;DHT22;1444;49.166;7.312;2023-09-19T13:22:37;22.10;92.30
2873;DHT22;1444;49.166;7.312;2023-09-19T13:25:09;21.80;91.70
2873;DHT22;1444;49.166;7.312;2023-09-19T13:27:40;21.90;92.30
2873;DHT22;1444;49.166;7.312;2023-09-19T13:30:08;22.00;92.20
2873;DHT22;1444;49.166;7.312;2023-09-19T13:32:35;21.90;91.60
2873;DHT22;1444;49.166;7.312;2023-09-19T13:35:04;22.20;92.10
2873;DHT22;1444;49.166;7.312;2023-09-19T13:37:34;22.30;91.70
2873;DHT22;1444;49.166;7.312;2023-09-19T13:40:03;22.30;91.60
2873;DHT22;1444;49.166;7.312;2023-09-19T13:42:31;22.60;93.70
2873;DHT22;1444;49.166;7.312;2023-09-19T13:44:57;22.50;92.10
2873;DHT22;1444;49.166;7.312;2023-09-19T13:47:24;22.70;90.70
2873;DHT22;1444;49.166;7.312;2023-09-19T13:49:52;22.50;91.30
2873;DHT22;1444;49.166;7.312;2023-09-19T13:52:19;22.50;91.30
2873;DHT22;1444;49.166;7.312;2023-09-19T13:54:46;22.60;92.20
2873;DHT22;1444;49.166;7.312;2023-09-19T13:57:14;22.50;91.50
2873;DHT22;1444;49.166;7.312;2023-09-19T13:59:40;22.50;91.10
2873;DHT22;1444;49.166;7.312;2023-09-19T14:02:07;22.60;92.00
2873;DHT22;1444;49.166;7.312;2023-09-19T14:04:34;22.70;91.70
2873;DHT22;1444;49.166;7.312;2023-09-19T14:07:01;22.90;91.60
2873;DHT22;1444;49.166;7.312;2023-09-19T14:09:29;22.90;90.80
2873;DHT22;1444;49.166;7.312;2023-09-19T14:11:55;22.70;91.10
2873;DHT22;1444;49.166;7.312;2023-09-19T14:14:24;22.70;91.50
2873;DHT22;1444;49.166;7.312;2023-09-19T14:16:50;22.50;90.90
2873;DHT22;1444;49.166;7.312;2023-09-19T14:19:18;22.50;90.60
2873;DHT22;1444;49.166;7.312;2023-09-19T14:21:45;22.70;91.70
2873;DHT22;1444;49.166;7.312;2023-09-19T14:24:16;22.80;91.70
2873;DHT22;1444;49.166;7.312;2023-09-19T14:26:43;22.60;90.20
2873;DHT22;1444;49.166;7.312;2023-09-19T14:29:10;22.50;90.40
2873;DHT22;1444;49.166;7.312;2023-09-19T14:31:38;22.40;90.00
2873;DHT22;1444;49.166;7.312;2023-09-19T14:34:06;22.60;91.20
2873;DHT22;1444;49.166;7.312;2023-09-19T14:36:35;22.80;91.50
2873;DHT22;1444;49.166;7.312;2023-09-19T14:39:02;22.80;91.40
2873;DHT22;1444;49.166;7.312;2023-09-19T14:41:29;23.00;90.10
2873;DHT22;1444;49.166;7.312;2023-09-19T14:43:57;22.90;90.30
2873;DHT22;1444;49.166;7.312;2023-09-19T14:46:24;23.00;90.00
2873;DHT22;1444;49.166;7.312;2023-09-19T14:48:52;22.90;89.60
2873;DHT22;1444;49.166;7.312;2023-09-19T14:51:20;22.90;90.20
2873;DHT22;1444;49.166;7.312;2023-09-19T14:53:47;22.80;90.60
2873;DHT22;1444;49.166;7.312;2023-09-19T14:56:14;22.40;89.20
2873;DHT22;1444;49.166;7.312;2023-09-19T14:58:44;22.30;90.50
2873;DHT22;1444;49.166;7.312;2023-09-19T15:01:13;22.50;92.00
2873;DHT22;1444;49.166;7.312;2023-09-19T15:03:41;22.50;91.10
2873;DHT22;1444;49.166;7.312;2023-09-19T15:06:11;22.50;90.90
2873;DHT22;1444;49.166;7.312;2023-09-19T15:08:40;22.70;91.10
2873;DHT22;1444;49.166;7.312;2023-09-19T15:11:11;22.60;91.00
2873;DHT22;1444;49.166;7.312;2023-09-19T15:13:38;22.70;91.00
2873;DHT22;1444;49.166;7.312;2023-09-19T15:16:06;22.80;91.00
2873;DHT22;1444;49.166;7.312;2023-09-19T15:18:35;22.80;90.70
2873;DHT22;1444;49.166;7.312;2023-09-19T15:21:03;22.90;91.00
2873;DHT22;1444;49.166;7.312;2023-09-19T15:23:32;22.90;90.70
2873;DHT22;1444;49.166;7.312;2023-09-19T15:25:59;23.00;90.60
2873;DHT22;1444;49.166;7.312;2023-09-19T15:28:26;23.10;90.60
2873;DHT22;1444;49.166;7.312;2023-09-19T15:30:58;23.30;90.60
2873;DHT22;1444;49.166;7.312;2023-09-19T15:33:25;23.30;90.90
2873;DHT22;1444;49.166;7.312;2023-09-19T15:36:01;23.20;90.60
2873;DHT22;1444;49.166;7.312;2023-09-19T15:38:30;23.10;89.70
2873;DHT22;1444;49.166;7.312;2023-09-19T15:40:57;23.00;90.30
2873;DHT22;1444;49.166;7.312;2023-09-19T15:43:24;22.80;90.50
2873;DHT22;1444;49.166;7.312;2023-09-19T15:45:51;22.50;89.20
2873;DHT22;1444;49.166;7.312;2023-09-19T15:48:18;22.60;89.60
2873;DHT22;1444;49.166;7.312;2023-09-19T15:50:47;22.60;90.00
2873;DHT22;1444;49.166;7.312;2023-09-19T15:53:13;22.70;90.70
2873;DHT22;1444;49.166;7.312;2023-09-19T15:55:43;22.70;90.40
2873;DHT22;1444;49.166;7.312;2023-09-19T15:58:10;22.70;90.30
2873;DHT22;1444;49.166;7.312;2023-09-19T16:00:40;22.70;90.10
2873;DHT22;1444;49.166;7.312;2023-09-19T16:03:06;22.70;90.30
2873;DHT22;1444;49.166;7.312;2023-09-19T16:05:35;22.70;90.60
2873;DHT22;1444;49.166;7.312;2023-09-19T16:08:05;22.60;90.40
2873;DHT22;1444;49.166;7.312;2023-09-19T16:10:34;22.70;90.00
2873;DHT22;1444;49.166;7.312;2023-09-19T16:13:04;22.70;90.30
2873;DHT22;1444;49.166;7.312;2023-09-19T16:15:30;22.60;90.60
2873;DHT22;1444;49.166;7.312;2023-09-19T16:17:58;22.50;90.70
2873;DHT22;1444;49.166;7.312;2023-09-19T16:20:25;22.60;91.10
2873;DHT22;1444;49.166;7.312;2023-09-19T16:22:53;22.60;91.00
2873;DHT22;1444;49.166;7.312;2023-09-19T16:25:20;22.60;90.80
2873;DHT22;1444;49.166;7.312;2023-09-19T16:27:47;22.60;91.20